createdAt,value
2022-10-03T00:02:39.597Z,9.65
2022-10-03T00:05:10.797Z,9.65
2022-10-03T00:07:55.539Z,9.65
2022-10-03T00:10:48.175Z,9.64
2022-10-03T00:13:19.270Z,9.64
2022-10-03T00:16:06.600Z,9.65
2022-10-03T00:19:07.326Z,9.65
2022-10-03T00:21:51.049Z,9.64
2022-10-03T00:24:35.045Z,9.63
2022-10-03T00:27:17.758Z,9.62
2022-10-03T00:30:13.642Z,9.62
2022-10-03T00:32:47.244Z,9.61
2022-10-03T00:35:21.440Z,9.58
2022-10-03T00:38:24.114Z,9.56
2022-10-03T00:41:12.946Z,9.51
2022-10-03T00:44:03.152Z,9.46
2022-10-03T00:46:49.764Z,9.42
2022-10-03T00:49:43.058Z,9.39
2022-10-03T00:52:29.660Z,9.36
2022-10-03T00:55:04.064Z,9.33
2022-10-03T00:58:14.074Z,9.31
2022-10-03T01:00:50.919Z,9.29
2022-10-03T01:03:27.968Z,9.28
2022-10-03T01:06:21.458Z,9.27
2022-10-03T01:09:07.100Z,9.27
2022-10-03T01:12:00.467Z,9.25
2022-10-03T01:14:45.885Z,9.23
2022-10-03T01:17:37.996Z,9.23
2022-10-03T01:20:28.958Z,9.20
2022-10-03T01:23:33.052Z,9.18
2022-10-03T01:26:25.413Z,9.16
2022-10-03T01:29:33.936Z,9.13
2022-10-03T01:32:15.775Z,9.11
2022-10-03T01:35:08.091Z,9.09
2022-10-03T01:37:36.258Z,9.10
2022-10-03T01:40:36.826Z,9.09
2022-10-03T01:43:23.391Z,9.07
2022-10-03T01:46:18.440Z,9.06
2022-10-03T01:49:07.347Z,9.04
2022-10-03T01:51:48.269Z,9.03
2022-10-03T01:54:31.549Z,9.02
2022-10-03T01:57:29.567Z,8.99
2022-10-03T02:00:05.891Z,8.97
2022-10-03T02:02:53.282Z,8.96
2022-10-03T02:05:55.413Z,8.96
2022-10-03T02:08:35.459Z,8.96
2022-10-03T02:11:10.175Z,8.99
2022-10-03T02:13:53.087Z,9.01
2022-10-03T02:16:49.085Z,9.04
2022-10-03T02:19:29.741Z,9.06
2022-10-03T02:22:00.920Z,9.09
2022-10-03T02:24:42.657Z,9.11
2022-10-03T02:27:42.891Z,9.12
2022-10-03T02:30:20.235Z,9.13
2022-10-03T02:33:06.963Z,9.15
2022-10-03T02:35:50.409Z,9.17
2022-10-03T02:38:26.331Z,9.20
2022-10-03T02:41:09.626Z,9.21
2022-10-03T02:43:56.240Z,9.22
2022-10-03T02:46:59.999Z,9.24
2022-10-03T02:50:11.147Z,9.26
2022-10-03T02:52:54.412Z,9.29
2022-10-03T02:55:41.525Z,9.32
2022-10-03T02:58:23.074Z,9.35
2022-10-03T03:01:29.303Z,9.38
2022-10-03T03:04:27.383Z,9.41
2022-10-03T03:07:43.137Z,9.43
2022-10-03T03:10:59.626Z,9.45
2022-10-03T03:13:36.969Z,9.47
2022-10-03T03:16:25.310Z,9.47
2022-10-03T03:18:59.344Z,9.48
2022-10-03T03:21:52.557Z,9.48
2022-10-03T03:24:29.759Z,9.45
2022-10-03T03:27:04.194Z,9.43
2022-10-03T03:29:39.973Z,9.41
2022-10-03T03:32:40.225Z,9.41
2022-10-03T03:35:27.842Z,9.39
2022-10-03T03:38:36.275Z,9.38
2022-10-03T03:41:13.414Z,9.37
2022-10-03T03:43:59.634Z,9.37
2022-10-03T03:46:40.164Z,9.38
2022-10-03T03:49:14.207Z,9.39
2022-10-03T03:51:55.013Z,9.39
2022-10-03T03:54:26.536Z,9.39
2022-10-03T03:57:19.260Z,9.40
2022-10-03T03:59:47.514Z,9.42
2022-10-03T04:02:27.245Z,9.44
2022-10-03T04:05:19.951Z,9.46
2022-10-03T04:08:18.885Z,9.48
2022-10-03T04:10:58.802Z,9.48
2022-10-03T04:13:26.926Z,9.49
2022-10-03T04:16:48.636Z,9.48
2022-10-03T04:19:44.093Z,9.49
2022-10-03T04:22:35.314Z,9.50
2022-10-03T04:25:23.731Z,9.50
2022-10-03T04:28:08.156Z,9.52
2022-10-03T04:30:55.541Z,9.52
2022-10-03T04:33:25.826Z,9.52
2022-10-03T04:36:09.033Z,9.53
2022-10-03T04:38:48.912Z,9.55
2022-10-03T04:41:23.657Z,9.55
2022-10-03T04:44:12.197Z,9.55
2022-10-03T04:46:53.144Z,9.56
2022-10-03T04:49:36.060Z,9.57
2022-10-03T04:52:16.965Z,9.57
2022-10-03T04:55:07.049Z,9.58
2022-10-03T04:58:04.718Z,9.60
2022-10-03T05:00:54.828Z,9.64
2022-10-03T05:03:43.752Z,9.68
2022-10-03T05:06:41.447Z,9.72
2022-10-03T05:09:45.134Z,9.76
2022-10-03T05:12:41.917Z,9.79
2022-10-03T05:15:34.501Z,9.82
2022-10-03T05:18:02.661Z,9.86
2022-10-03T05:21:00.976Z,9.88
2022-10-03T05:24:03.563Z,9.92
2022-10-03T05:26:45.406Z,9.94
2022-10-03T05:29:52.542Z,9.96
2022-10-03T05:32:26.171Z,9.98
2022-10-03T05:35:19.284Z,10.00
2022-10-03T05:38:00.567Z,10.02
2022-10-03T05:40:34.590Z,10.05
2022-10-03T05:43:27.347Z,10.07
2022-10-03T05:46:14.917Z,10.08
2022-10-03T05:49:37.043Z,10.09
2022-10-03T05:52:34.686Z,10.11
2022-10-03T05:55:08.579Z,10.12
2022-10-03T05:58:19.987Z,10.14
2022-10-03T06:01:07.404Z,10.17
2022-10-03T06:03:55.458Z,10.19
2022-10-03T06:06:44.239Z,10.21
2022-10-03T06:09:15.570Z,10.25
2022-10-03T06:11:52.430Z,10.30
2022-10-03T06:14:30.305Z,10.33
2022-10-03T06:17:16.786Z,10.37
2022-10-03T06:20:23.892Z,10.39
2022-10-03T06:23:00.437Z,10.42
2022-10-03T06:26:19.014Z,10.48
2022-10-03T06:28:52.878Z,10.47
2022-10-03T06:31:51.942Z,10.49
2022-10-03T06:34:26.406Z,10.51
2022-10-03T06:37:03.601Z,10.52
2022-10-03T06:39:44.616Z,10.55
2022-10-03T06:42:32.374Z,10.56
2022-10-03T06:45:10.026Z,10.59
2022-10-03T06:47:56.721Z,10.63
2022-10-03T06:50:47.223Z,10.66
2022-10-03T06:54:00.407Z,10.69
2022-10-03T06:56:48.986Z,10.76
2022-10-03T06:59:24.055Z,10.85
2022-10-03T07:02:17.274Z,10.95
2022-10-03T07:04:45.547Z,11.01
2022-10-03T07:07:51.418Z,11.00
2022-10-03T07:10:25.425Z,11.00
2022-10-03T07:13:20.324Z,11.02
2022-10-03T07:16:34.302Z,11.04
2022-10-03T07:19:50.390Z,11.06
2022-10-03T07:22:56.279Z,11.05
2022-10-03T07:26:15.475Z,11.02
2022-10-03T07:28:46.446Z,10.96
2022-10-03T07:31:40.937Z,10.93
2022-10-03T07:34:46.215Z,10.89
2022-10-03T07:37:40.243Z,10.88
2022-10-03T07:40:45.473Z,10.86
2022-10-03T07:43:38.312Z,10.82
2022-10-03T07:46:44.192Z,10.80
2022-10-03T07:49:43.672Z,10.75
2022-10-03T07:52:22.659Z,10.72
2022-10-03T07:55:19.496Z,10.65
2022-10-03T07:58:25.479Z,10.62
2022-10-03T08:00:56.335Z,10.52
2022-10-03T08:03:36.916Z,10.47
2022-10-03T08:06:34.305Z,10.43
2022-10-03T08:09:41.424Z,10.40
2022-10-03T08:12:43.159Z,10.37
2022-10-03T08:15:27.263Z,10.30
2022-10-03T08:18:29.765Z,10.30
2022-10-03T08:21:03.642Z,10.33
2022-10-03T08:23:47.287Z,10.33
2022-10-03T08:26:23.143Z,10.31
2022-10-03T08:29:02.646Z,10.34
2022-10-03T08:31:37.304Z,10.43
2022-10-03T08:34:18.546Z,10.53
2022-10-03T08:37:17.738Z,10.63
2022-10-03T08:40:17.446Z,10.70
2022-10-03T08:43:03.871Z,10.80
2022-10-03T08:45:52.087Z,10.91
2022-10-03T08:48:32.233Z,11.03
2022-10-03T08:51:16.546Z,11.08
2022-10-03T08:54:24.819Z,11.11
2022-10-03T08:57:26.404Z,11.16
2022-10-03T09:00:19.517Z,11.16
2022-10-03T09:03:42.751Z,11.14
2022-10-03T09:06:35.191Z,11.08
2022-10-03T09:09:24.931Z,11.04
2022-10-03T09:12:08.137Z,11.10
2022-10-03T09:15:06.975Z,11.20
2022-10-03T09:17:57.570Z,11.35
2022-10-03T09:21:07.254Z,11.48
2022-10-03T09:24:01.264Z,11.64
2022-10-03T09:26:51.066Z,11.89
2022-10-03T09:29:44.591Z,12.11
2022-10-03T09:32:18.947Z,12.21
2022-10-03T09:35:00.326Z,12.43
2022-10-03T09:37:59.072Z,12.87
2022-10-03T09:40:58.004Z,13.06
2022-10-03T09:44:03.950Z,13.06
2022-10-03T09:47:15.418Z,13.01
2022-10-03T09:50:02.152Z,13.04
2022-10-03T09:53:02.696Z,13.09
2022-10-03T09:56:05.058Z,13.18
2022-10-03T09:58:45.651Z,13.18
2022-10-03T10:01:31.535Z,13.09
2022-10-03T10:04:50.529Z,13.00
2022-10-03T10:07:58.537Z,12.80
2022-10-03T10:10:29.744Z,12.54
2022-10-03T10:13:25.724Z,12.33
2022-10-03T10:16:35.159Z,12.18
2022-10-03T10:19:22.409Z,12.00
2022-10-03T10:21:53.252Z,11.88
2022-10-03T10:24:30.717Z,11.78
2022-10-03T10:27:26.717Z,11.70
2022-10-03T10:30:31.423Z,11.63
2022-10-03T10:33:19.520Z,11.60
2022-10-03T10:36:02.479Z,11.58
2022-10-03T10:38:39.746Z,11.53
2022-10-03T10:41:25.966Z,11.51
2022-10-03T10:44:19.230Z,11.49
2022-10-03T10:47:06.489Z,11.45
2022-10-03T10:49:36.626Z,11.42
2022-10-03T10:52:14.034Z,11.40
2022-10-03T10:55:06.755Z,11.40
2022-10-03T10:57:41.090Z,11.39
2022-10-03T11:00:40.194Z,11.38
2022-10-03T11:03:46.164Z,11.39
2022-10-03T11:06:32.727Z,11.39
2022-10-03T11:09:22.472Z,11.38
2022-10-03T11:11:51.503Z,11.35
2022-10-03T11:14:24.640Z,11.34
2022-10-03T11:17:26.959Z,11.35
2022-10-03T11:20:14.197Z,11.37
2022-10-03T11:23:07.520Z,11.35
2022-10-03T11:26:03.380Z,11.30
2022-10-03T11:28:50.039Z,11.27
2022-10-03T11:31:55.900Z,11.21
2022-10-03T11:34:51.981Z,11.15
2022-10-03T11:37:40.393Z,11.09
2022-10-03T11:40:22.111Z,11.05
2022-10-03T11:43:21.372Z,11.01
2022-10-03T11:45:54.580Z,10.94
2022-10-03T11:48:35.212Z,10.90
2022-10-03T11:51:16.129Z,10.85
2022-10-03T11:54:13.293Z,10.80
2022-10-03T11:57:02.043Z,10.80
2022-10-03T12:00:20.405Z,10.81
2022-10-03T12:03:02.828Z,10.87
2022-10-03T12:05:49.976Z,10.93
2022-10-03T12:08:56.554Z,10.96
2022-10-03T12:11:37.131Z,11.01
2022-10-03T12:14:24.068Z,11.03
2022-10-03T12:17:12.541Z,11.03
2022-10-03T12:19:56.049Z,11.01
2022-10-03T12:22:42.709Z,10.98
2022-10-03T12:25:21.493Z,10.97
2022-10-03T12:27:55.743Z,10.94
2022-10-03T12:30:25.779Z,10.90
2022-10-03T12:33:14.865Z,10.89
2022-10-03T12:36:10.026Z,10.84
2022-10-03T12:38:41.646Z,10.82
2022-10-03T12:41:51.945Z,10.79
2022-10-03T12:44:39.926Z,10.77
2022-10-03T12:47:51.185Z,10.74
2022-10-03T12:50:37.358Z,10.72
2022-10-03T12:53:17.792Z,10.72
2022-10-03T12:56:08.418Z,10.72
2022-10-03T12:59:03.506Z,10.76
2022-10-03T13:02:12.599Z,10.82
2022-10-03T13:05:13.189Z,10.92
2022-10-03T13:08:07.533Z,11.06
2022-10-03T13:10:43.787Z,11.23
2022-10-03T13:13:21.539Z,11.36
2022-10-03T13:16:07.055Z,11.48
2022-10-03T13:18:54.407Z,11.61
2022-10-03T13:21:46.529Z,11.72
2022-10-03T13:24:40.840Z,11.79
2022-10-03T13:27:16.357Z,11.90
2022-10-03T13:29:49.065Z,12.01
2022-10-03T13:32:30.730Z,12.11
2022-10-03T13:35:26.817Z,12.17
2022-10-03T13:38:28.581Z,12.26
2022-10-03T13:41:25.584Z,12.32
2022-10-03T13:44:10.213Z,12.38
2022-10-03T13:47:23.394Z,12.44
2022-10-03T13:49:56.918Z,12.47
2022-10-03T13:52:51.616Z,12.49
2022-10-03T13:55:22.625Z,12.49
2022-10-03T13:58:19.544Z,12.44
2022-10-03T14:01:13.896Z,12.35
2022-10-03T14:04:07.014Z,12.25
2022-10-03T14:06:51.547Z,12.15
2022-10-03T14:09:47.505Z,12.07
2022-10-03T14:12:56.527Z,11.95
2022-10-03T14:15:25.005Z,11.87
2022-10-03T14:18:14.586Z,11.81
2022-10-03T14:21:08.932Z,11.74
2022-10-03T14:24:07.752Z,11.69
2022-10-03T14:27:08.824Z,11.67
2022-10-03T14:30:26.491Z,11.64
2022-10-03T14:33:31.844Z,11.61
2022-10-03T14:36:08.945Z,11.60
2022-10-03T14:39:36.728Z,11.60
2022-10-03T14:42:26.734Z,11.58
2022-10-03T14:45:20.819Z,11.57
2022-10-03T14:47:54.045Z,11.54
2022-10-03T14:50:29.127Z,11.52
2022-10-03T14:53:07.169Z,11.51
2022-10-03T14:56:06.941Z,11.48
2022-10-03T14:58:54.620Z,11.45
2022-10-03T15:01:29.001Z,11.40
2022-10-03T15:04:10.358Z,11.36
2022-10-03T15:06:44.646Z,11.31
2022-10-03T15:09:20.890Z,11.26
2022-10-03T15:12:00.673Z,11.22
2022-10-03T15:14:33.375Z,11.19
2022-10-03T15:17:07.395Z,11.17
2022-10-03T15:19:44.407Z,11.15
2022-10-03T15:22:39.958Z,11.14
2022-10-03T15:25:19.811Z,11.13
2022-10-03T15:27:54.133Z,11.10
2022-10-03T15:30:31.439Z,11.06
2022-10-03T15:33:29.660Z,10.99
2022-10-03T15:36:05.960Z,10.90
2022-10-03T15:38:39.119Z,10.81
2022-10-03T15:41:21.969Z,10.73
2022-10-03T15:43:51.130Z,10.67
2022-10-03T15:46:46.512Z,10.60
2022-10-03T15:49:32.819Z,10.56
2022-10-03T15:52:17.583Z,10.51
2022-10-03T15:54:50.838Z,10.49
2022-10-03T15:57:26.712Z,10.47
2022-10-03T16:00:03.068Z,10.46
2022-10-03T16:02:54.062Z,10.43
2022-10-03T16:05:25.809Z,10.42
2022-10-03T16:08:13.640Z,10.40
2022-10-03T16:11:18.059Z,10.38
2022-10-03T16:14:13.268Z,10.34
2022-10-03T16:17:31.040Z,10.33
2022-10-03T16:20:30.671Z,10.30
2022-10-03T16:23:24.179Z,10.27
2022-10-03T16:26:04.810Z,10.26
2022-10-03T16:28:40.748Z,10.24
2022-10-03T16:31:20.810Z,10.24
2022-10-03T16:34:06.951Z,10.22
2022-10-03T16:36:48.701Z,10.21
2022-10-03T16:39:24.598Z,10.21
2022-10-03T16:41:55.759Z,10.20
2022-10-03T16:44:45.538Z,10.19
2022-10-03T16:47:15.671Z,10.15
2022-10-03T16:50:14.305Z,10.12
2022-10-03T16:52:47.249Z,10.10
2022-10-03T16:55:18.594Z,10.08
2022-10-03T16:58:15.946Z,10.06
2022-10-03T17:01:25.815Z,10.04
2022-10-03T17:03:55.300Z,10.04
2022-10-03T17:06:31.614Z,10.03
2022-10-03T17:09:04.694Z,10.01
2022-10-03T17:11:38.035Z,9.99
2022-10-03T17:14:09.571Z,9.97
2022-10-03T17:16:47.930Z,9.97
2022-10-03T17:19:20.189Z,9.97
2022-10-03T17:21:54.986Z,9.96
2022-10-03T17:24:41.710Z,9.96
2022-10-03T17:27:24.639Z,9.94
2022-10-03T17:30:19.616Z,9.94
2022-10-03T17:32:56.927Z,9.94
2022-10-03T17:35:49.158Z,9.95
2022-10-03T17:38:55.392Z,9.96
2022-10-03T17:41:44.317Z,9.97
2022-10-03T17:44:34.233Z,9.97
2022-10-03T17:47:03.306Z,9.99
2022-10-03T17:49:47.915Z,10.01
2022-10-03T17:52:24.067Z,10.00
2022-10-03T17:55:07.063Z,10.00
2022-10-03T17:58:06.482Z,9.99
2022-10-03T18:00:58.869Z,10.00
2022-10-03T18:03:33.614Z,10.00
2022-10-03T18:06:35.213Z,10.00
2022-10-03T18:09:11.198Z,10.01
2022-10-03T18:11:43.075Z,10.02
2022-10-03T18:14:39.109Z,10.01
2022-10-03T18:17:14.460Z,10.00
2022-10-03T18:19:53.741Z,10.00
2022-10-03T18:22:43.578Z,10.01
2022-10-03T18:26:02.382Z,10.01
2022-10-03T18:29:16.369Z,9.99
2022-10-03T18:31:53.477Z,9.99
2022-10-03T18:34:28.257Z,9.98
2022-10-03T18:36:59.286Z,9.97
2022-10-03T18:39:32.356Z,9.96
2022-10-03T18:42:02.422Z,9.96
2022-10-03T18:44:34.070Z,9.96
2022-10-03T18:47:44.186Z,9.96
2022-10-03T18:50:27.009Z,9.96
2022-10-03T18:53:28.170Z,9.96
2022-10-03T18:56:01.795Z,9.96
2022-10-03T18:58:36.865Z,9.96
2022-10-03T19:01:07.223Z,9.96
2022-10-03T19:03:43.909Z,9.96
2022-10-03T19:06:25.279Z,9.96
2022-10-03T19:08:58.418Z,9.95
2022-10-03T19:11:34.599Z,9.94
2022-10-03T19:14:18.179Z,9.95
2022-10-03T19:17:05.043Z,9.95
2022-10-03T19:19:56.677Z,9.95
2022-10-03T19:22:40.508Z,9.94
2022-10-03T19:25:22.051Z,9.94
2022-10-03T19:28:06.541Z,9.93
2022-10-03T19:30:37.274Z,9.93
2022-10-03T19:33:07.399Z,9.93
2022-10-03T19:35:43.371Z,9.92
2022-10-03T19:38:36.681Z,9.92
2022-10-03T19:41:08.328Z,9.89
2022-10-03T19:43:44.136Z,9.88
2022-10-03T19:46:15.345Z,9.87
2022-10-03T19:49:22.377Z,9.87
2022-10-03T19:51:54.029Z,9.84
2022-10-03T19:54:35.098Z,9.83
2022-10-03T19:57:05.935Z,9.80
2022-10-03T19:59:46.205Z,9.78
2022-10-03T20:02:14.879Z,9.76
2022-10-03T20:04:50.878Z,9.76
2022-10-03T20:07:32.689Z,9.75
2022-10-03T20:10:30.260Z,9.72
2022-10-03T20:13:03.882Z,9.70
2022-10-03T20:15:44.151Z,9.68
2022-10-03T20:18:20.912Z,9.65
2022-10-03T20:20:55.775Z,9.63
2022-10-03T20:23:28.171Z,9.62
2022-10-03T20:26:10.288Z,9.59
2022-10-03T20:28:49.586Z,9.56
2022-10-03T20:31:26.518Z,9.54
2022-10-03T20:33:58.627Z,9.52
2022-10-03T20:36:31.624Z,9.52
2022-10-03T20:39:11.852Z,9.49
2022-10-03T20:41:43.116Z,9.47
2022-10-03T20:45:05.285Z,9.44
2022-10-03T20:47:39.750Z,9.41
2022-10-03T20:50:28.952Z,9.40
2022-10-03T20:53:02.384Z,9.38
2022-10-03T20:55:38.686Z,9.36
2022-10-03T20:58:19.221Z,9.35
2022-10-03T21:00:52.515Z,9.34
2022-10-03T21:03:53.828Z,9.34
2022-10-03T21:06:29.160Z,9.34
2022-10-03T21:09:01.503Z,9.34
2022-10-03T21:11:33.074Z,9.34
2022-10-03T21:14:30.342Z,9.35
2022-10-03T21:16:59.941Z,9.36
2022-10-03T21:19:34.533Z,9.36
2022-10-03T21:22:07.743Z,9.36
2022-10-03T21:24:50.780Z,9.37
2022-10-03T21:27:21.702Z,9.37
2022-10-03T21:29:54.869Z,9.36
2022-10-03T21:32:51.018Z,9.37
2022-10-03T21:35:32.620Z,9.37
2022-10-03T21:38:24.359Z,9.38
2022-10-03T21:41:01.541Z,9.40
2022-10-03T21:43:44.947Z,9.42
2022-10-03T21:46:36.654Z,9.45
2022-10-03T21:49:25.370Z,9.48
2022-10-03T21:52:07.906Z,9.51
2022-10-03T21:54:58.338Z,9.53
2022-10-03T21:57:52.792Z,9.54
2022-10-03T22:00:28.548Z,9.56
2022-10-03T22:03:17.644Z,9.58
2022-10-03T22:05:56.369Z,9.60
2022-10-03T22:08:26.317Z,9.62
2022-10-03T22:11:13.178Z,9.63
2022-10-03T22:14:12.929Z,9.65
2022-10-03T22:16:46.807Z,9.67
2022-10-03T22:19:23.277Z,9.68
2022-10-03T22:22:21.013Z,9.70
2022-10-03T22:25:28.386Z,9.72
2022-10-03T22:28:21.173Z,9.72
2022-10-03T22:31:05.215Z,9.73
2022-10-03T22:34:08.654Z,9.73
2022-10-03T22:36:39.372Z,9.73
2022-10-03T22:39:13.505Z,9.74
2022-10-03T22:41:45.958Z,9.75
2022-10-03T22:44:17.190Z,9.77
2022-10-03T22:46:50.932Z,9.78
2022-10-03T22:49:24.710Z,9.80
2022-10-03T22:51:56.010Z,9.81
2022-10-03T22:54:35.649Z,9.81
2022-10-03T22:57:09.816Z,9.81
2022-10-03T23:00:06.751Z,9.82
2022-10-03T23:02:50.140Z,9.83
2022-10-03T23:05:44.534Z,9.83
2022-10-03T23:08:37.939Z,9.84
2022-10-03T23:11:25.789Z,9.84
2022-10-03T23:14:01.437Z,9.83
2022-10-03T23:16:29.702Z,9.83
2022-10-03T23:19:13.232Z,9.82
2022-10-03T23:21:50.026Z,9.83
2022-10-03T23:24:27.181Z,9.82
2022-10-03T23:27:12.771Z,9.82
2022-10-03T23:29:41.029Z,9.82
2022-10-03T23:32:11.076Z,9.82
2022-10-03T23:34:44.475Z,9.81
2022-10-03T23:37:13.434Z,9.82
2022-10-03T23:39:44.695Z,9.82
2022-10-03T23:42:37.971Z,9.82
2022-10-03T23:45:15.115Z,9.82
2022-10-03T23:47:57.413Z,9.82
2022-10-03T23:50:39.936Z,9.80
2022-10-03T23:53:28.926Z,9.80
2022-10-03T23:56:00.305Z,9.80
2022-10-03T23:58:32.854Z,9.80
